Time;durP1;ratioP1;P1;durP2;ratioP2;P2;SDS_P1;SDS_P2;PMS_P1;PMS_P2;Temp;Humidity;BMP_temperature;BMP_pressure;BME280_temperature;BME280_humidity;BME280_pressure;Samples;Min_cycle;Max_cycle;Signal;HPM_P1;HPM_P2
2021/05/30 00:01:13;;;;;;;9.05;4.88;;;;;;;;;;8291921;28;20391;-68
2021/05/30 00:05:17;;;;;;;8.20;4.43;;;;;;;;;;8311131;28;20060;-67
2021/05/30 00:09:23;;;;;;;7.95;4.90;;;;;;;;;;8324494;28;20331;-68
2021/05/30 00:13:27;;;;;;;7.10;4.85;;;;;;;;;;8324830;28;20428;-67
2021/05/30 00:17:32;;;;;;;6.93;4.85;;;;;;;;;;8325634;28;20454;-68
2021/05/30 00:21:37;;;;;;;7.30;5.13;;;;;;;;;;8323811;28;20060;-67
2021/05/30 00:25:43;;;;;;;10.82;5.28;;;;;;;;;;8323791;28;20394;-69
2021/05/30 00:29:47;;;;;;;10.60;6.85;;;;;;;;;;8324555;28;20048;-68
2021/05/30 00:33:52;;;;;;;11.63;6.38;;;;;;;;;;8306088;28;20393;-67
2021/05/30 00:37:57;;;;;;;6.38;4.88;;;;;;;;;;8323313;28;20071;-68
2021/05/30 00:42:03;;;;;;;7.82;5.28;;;;;;;;;;8323673;28;20409;-67
2021/05/30 00:46:08;;;;;;;7.95;4.88;;;;;;;;;;8323956;28;20478;-69
2021/05/30 00:50:14;;;;;;;9.63;6.13;;;;;;;;;;8323022;28;20443;-67
2021/05/30 00:54:17;;;;;;;8.05;5.45;;;;;;;;;;8325951;28;20352;-68
2021/05/30 00:58:22;;;;;;;8.45;5.20;;;;;;;;;;8323381;28;20371;-67
2021/05/30 01:02:27;;;;;;;9.73;6.07;;;;;;;;;;8324175;28;20075;-68
2021/05/30 01:06:34;;;;;;;9.20;6.10;;;;;;;;;;8324173;28;20481;-68
2021/05/30 01:10:46;;;;;;;10.27;6.13;;;;;;;;;;8324291;28;20463;-67
2021/05/30 01:14:51;;;;;;;9.82;5.78;;;;;;;;;;8323248;28;20382;-68
2021/05/30 01:18:58;;;;;;;11.52;6.50;;;;;;;;;;8323465;28;20401;-70
2021/05/30 01:23:12;;;;;;;10.50;6.47;;;;;;;;;;8328582;28;20451;-68
2021/05/30 01:27:17;;;;;;;11.77;7.65;;;;;;;;;;8327834;28;20514;-69
2021/05/30 01:31:23;;;;;;;15.15;8.75;;;;;;;;;;8329555;28;20364;-68
2021/05/30 01:35:28;;;;;;;13.80;8.35;;;;;;;;;;8329444;28;20478;-68
2021/05/30 01:39:33;;;;;;;13.52;8.15;;;;;;;;;;8312922;28;20335;-68
2021/05/30 01:43:38;;;;;;;12.35;7.55;;;;;;;;;;8328679;28;20494;-68
2021/05/30 01:47:45;;;;;;;12.20;8.50;;;;;;;;;;8329506;28;20052;-68
2021/05/30 01:51:49;;;;;;;13.93;8.63;;;;;;;;;;8329497;28;20497;-68
2021/05/30 02:00:16;;;;;;;13.60;8.45;;;;;;;;;;8329338;28;20117;-67
2021/05/30 02:04:29;;;;;;;15.45;9.45;;;;;;;;;;8330676;28;20477;-67
2021/05/30 02:08:34;;;;;;;15.32;9.15;;;;;;;;;;8329460;28;20459;-69
2021/05/30 02:12:40;;;;;;;14.68;9.40;;;;;;;;;;8311948;28;20344;-68
2021/05/30 02:16:45;;;;;;;14.48;9.57;;;;;;;;;;8311006;28;20364;-68
2021/05/30 02:20:51;;;;;;;14.70;9.45;;;;;;;;;;8311236;28;20371;-68
2021/05/30 02:24:56;;;;;;;13.55;9.07;;;;;;;;;;8328440;28;20366;-68
2021/05/30 02:29:01;;;;;;;14.73;9.20;;;;;;;;;;8328885;28;20470;-68
2021/05/30 02:33:07;;;;;;;14.75;9.60;;;;;;;;;;8326303;28;20481;-69
2021/05/30 02:37:15;;;;;;;16.08;9.45;;;;;;;;;;8328078;28;20351;-68
2021/05/30 02:41:19;;;;;;;17.50;10.30;;;;;;;;;;8328122;28;20388;-68
2021/05/30 02:45:24;;;;;;;15.55;9.27;;;;;;;;;;8329539;28;20477;-68
2021/05/30 02:49:30;;;;;;;17.95;10.35;;;;;;;;;;8326960;28;20574;-68
2021/05/30 02:53:35;;;;;;;15.32;9.98;;;;;;;;;;8326822;28;20379;-68
2021/05/30 02:57:40;;;;;;;14.35;9.77;;;;;;;;;;8308851;28;20382;-68
2021/05/30 03:01:45;;;;;;;10.43;6.55;;;;;;;;;;8327115;28;20354;-68
2021/05/30 03:05:50;;;;;;;8.70;6.43;;;;;;;;;;8327023;28;20383;-68
2021/05/30 03:09:56;;;;;;;11.77;6.25;;;;;;;;;;8326736;28;20387;-68
2021/05/30 03:14:01;;;;;;;12.15;7.80;;;;;;;;;;8327789;28;20418;-68
2021/05/30 03:18:07;;;;;;;10.52;7.30;;;;;;;;;;8326413;28;20370;-68
2021/05/30 03:22:12;;;;;;;9.60;5.90;;;;;;;;;;8325120;28;20516;-68
2021/05/30 03:26:16;;;;;;;11.30;6.65;;;;;;;;;;8326323;28;20351;-69
2021/05/30 03:30:22;;;;;;;13.23;6.28;;;;;;;;;;8326521;28;20475;-68
2021/05/30 03:34:26;;;;;;;9.40;6.70;;;;;;;;;;8325707;28;20394;-68
2021/05/30 03:38:32;;;;;;;10.55;6.65;;;;;;;;;;8326290;28;20363;-68
2021/05/30 03:42:41;;;;;;;10.32;7.00;;;;;;;;;;8326554;28;20511;-68
2021/05/30 03:46:46;;;;;;;10.93;7.55;;;;;;;;;;8326677;28;20383;-68
2021/05/30 03:50:51;;;;;;;15.10;7.65;;;;;;;;;;8325815;28;20047;-68
2021/05/30 03:54:56;;;;;;;10.10;7.93;;;;;;;;;;8325341;28;20397;-68
2021/05/30 03:59:01;;;;;;;9.80;8.00;;;;;;;;;;8324627;28;20402;-68
2021/05/30 04:03:07;;;;;;;10.70;7.80;;;;;;;;;;8325085;28;20074;-68
2021/05/30 04:07:11;;;;;;;11.07;7.95;;;;;;;;;;8324671;28;20060;-69
2021/05/30 04:11:18;;;;;;;11.68;8.13;;;;;;;;;;8324647;28;20378;-69
2021/05/30 04:15:23;;;;;;;15.23;8.30;;;;;;;;;;8307004;28;20414;-68
2021/05/30 04:19:26;;;;;;;14.05;7.57;;;;;;;;;;8325485;28;20465;-69
2021/05/30 04:23:31;;;;;;;9.30;7.22;;;;;;;;;;8326021;28;20454;-68
2021/05/30 04:27:36;;;;;;;9.25;7.35;;;;;;;;;;8323475;28;20383;-68
2021/05/30 04:31:40;;;;;;;10.48;7.88;;;;;;;;;;8325275;28;20409;-68
2021/05/30 04:35:45;;;;;;;10.55;7.47;;;;;;;;;;8323344;28;20375;-68
2021/05/30 04:39:50;;;;;;;9.20;6.75;;;;;;;;;;8325860;28;20344;-68
2021/05/30 04:43:55;;;;;;;11.70;7.05;;;;;;;;;;8323806;28;20482;-68
2021/05/30 04:48:03;;;;;;;;;;;;;;;;;;8323305;28;20371;-67
2021/05/30 04:52:11;;;;;;;10.95;7.07;;;;;;;;;;8324409;28;20215;-67
2021/05/30 04:56:19;;;;;;;;;;;;;;;;;;8325228;28;20465;-67
2021/05/30 05:00:24;;;;;;;9.60;7.07;;;;;;;;;;8324992;28;19920;-68
2021/05/30 05:04:29;;;;;;;9.68;6.80;;;;;;;;;;8323744;28;20048;-68
2021/05/30 05:08:34;;;;;;;16.08;7.13;;;;;;;;;;8322298;28;20389;-68
2021/05/30 05:12:39;;;;;;;10.10;6.43;;;;;;;;;;8323333;28;20051;-67
2021/05/30 05:16:43;;;;;;;8.30;6.00;;;;;;;;;;8323774;28;20382;-68
2021/05/30 05:20:49;;;;;;;9.02;6.03;;;;;;;;;;8324196;28;20400;-68
2021/05/30 05:24:54;;;;;;;8.05;5.70;;;;;;;;;;8307174;28;20074;-67
2021/05/30 05:28:59;;;;;;;9.20;6.20;;;;;;;;;;8324008;28;20518;-67
2021/05/30 05:33:05;;;;;;;7.50;5.72;;;;;;;;;;8322353;28;20493;-67
2021/05/30 05:37:09;;;;;;;9.95;5.93;;;;;;;;;;8322493;28;20078;-69
2021/05/30 05:41:15;;;;;;;14.63;6.10;;;;;;;;;;8320893;28;20350;-68
2021/05/30 05:45:20;;;;;;;6.68;5.07;;;;;;;;;;8324207;28;20372;-68
2021/05/30 05:49:25;;;;;;;5.90;4.60;;;;;;;;;;8322380;28;20079;-67
2021/05/30 05:53:30;;;;;;;7.70;4.25;;;;;;;;;;8322974;28;20459;-68
2021/05/30 05:57:37;;;;;;;6.03;4.07;;;;;;;;;;8322416;28;20389;-68
2021/05/30 06:01:40;;;;;;;15.10;6.85;;;;;;;;;;8323651;28;20052;-67
2021/05/30 06:05:45;;;;;;;25.08;10.10;;;;;;;;;;8325410;28;20060;-67
2021/05/30 06:09:51;;;;;;;10.18;6.75;;;;;;;;;;8327518;28;20485;-68
2021/05/30 06:13:55;;;;;;;8.93;4.72;;;;;;;;;;8328125;28;20142;-68
2021/05/30 06:18:04;;;;;;;10.98;4.68;;;;;;;;;;8328140;28;20374;-67
2021/05/30 06:22:09;;;;;;;10.18;5.63;;;;;;;;;;8325417;28;20501;-67
2021/05/30 06:26:16;;;;;;;6.05;4.70;;;;;;;;;;8327372;28;20106;-69
2021/05/30 06:30:22;;;;;;;6.22;4.80;;;;;;;;;;8328060;28;20620;-68
2021/05/30 06:34:27;;;;;;;6.00;4.05;;;;;;;;;;8330186;28;20347;-68
2021/05/30 06:38:32;;;;;;;8.90;4.60;;;;;;;;;;8327774;28;20466;-67
2021/05/30 06:42:37;;;;;;;8.30;6.43;;;;;;;;;;8326748;28;20079;-67
2021/05/30 06:46:42;;;;;;;8.77;4.20;;;;;;;;;;8328526;28;20078;-68
2021/05/30 06:51:12;;;;;;;5.47;4.05;;;;;;;;;;8328107;28;20078;-67
2021/05/30 06:55:13;;;;;;;8.07;4.15;;;;;;;;;;8328688;28;20414;-68
2021/05/30 06:59:19;;;;;;;7.57;4.13;;;;;;;;;;8328238;28;20467;-68
2021/05/30 07:03:24;;;;;;;4.63;3.05;;;;;;;;;;8327182;28;20359;-67
2021/05/30 07:07:28;;;;;;;5.35;3.33;;;;;;;;;;8326849;28;20471;-67
2021/05/30 07:11:34;;;;;;;7.53;3.78;;;;;;;;;;8326664;28;20600;-67
2021/05/30 07:15:40;;;;;;;11.88;5.15;;;;;;;;;;8327309;28;20444;-67
2021/05/30 07:19:48;;;;;;;6.85;3.42;;;;;;;;;;8308684;28;20052;-67
2021/05/30 07:23:53;;;;;;;7.07;3.50;;;;;;;;;;8326858;28;20355;-67
2021/05/30 07:27:58;;;;;;;11.90;4.95;;;;;;;;;;8325808;28;20396;-67
2021/05/30 07:32:04;;;;;;;5.88;2.72;;;;;;;;;;8325314;28;20282;-68
2021/05/30 07:36:10;;;;;;;6.50;2.75;;;;;;;;;;8325560;28;20463;-68
2021/05/30 07:40:17;;;;;;;3.70;2.70;;;;;;;;;;8326103;28;20420;-67
2021/05/30 07:44:22;;;;;;;6.60;2.40;;;;;;;;;;8325481;28;20393;-68
2021/05/30 07:48:27;;;;;;;5.20;2.88;;;;;;;;;;8325069;28;20394;-68
2021/05/30 07:52:32;;;;;;;8.20;5.13;;;;;;;;;;8306695;28;20447;-67
2021/05/30 07:56:40;;;;;;;3.17;2.30;;;;;;;;;;8324876;28;20455;-67
2021/05/30 08:00:45;;;;;;;3.15;2.15;;;;;;;;;;8324632;28;20347;-68
2021/05/30 08:04:52;;;;;;;5.30;3.10;;;;;;;;;;8325269;28;20346;-71
2021/05/30 08:08:58;;;;;;;4.40;2.42;;;;;;;;;;8308322;28;20455;-69
2021/05/30 08:13:03;;;;;;;3.70;1.63;;;;;;;;;;8323882;28;20385;-68
2021/05/30 08:17:07;;;;;;;3.83;1.80;;;;;;;;;;8325445;28;20121;-67
2021/05/30 08:21:13;;;;;;;3.55;2.05;;;;;;;;;;8324916;28;20378;-68
2021/05/30 08:25:19;;;;;;;2.58;1.73;;;;;;;;;;8305943;28;20051;-67
2021/05/30 08:29:25;;;;;;;2.15;1.40;;;;;;;;;;8323335;28;20474;-68
2021/05/30 08:33:31;;;;;;;3.25;1.85;;;;;;;;;;8324251;28;20359;-67
2021/05/30 08:37:38;;;;;;;1.90;1.23;;;;;;;;;;8323650;28;20461;-68
2021/05/30 08:41:43;;;;;;;1.43;0.80;;;;;;;;;;8323767;28;20934;-69
2021/05/30 08:45:50;;;;;;;1.00;0.73;;;;;;;;;;8324119;28;20489;-69
2021/05/30 08:49:56;;;;;;;1.07;0.87;;;;;;;;;;8289022;28;20463;-69
2021/05/30 08:54:01;;;;;;;5.28;3.22;;;;;;;;;;8290429;28;20355;-70
2021/05/30 08:58:05;;;;;;;13.20;6.15;;;;;;;;;;8292160;28;20380;-69
2021/05/30 09:02:12;;;;;;;9.88;6.43;;;;;;;;;;8290608;28;20352;-69
2021/05/30 09:06:19;;;;;;;40.05;12.63;;;;;;;;;;8288836;28;20340;-70
2021/05/30 09:10:26;;;;;;;2.88;1.95;;;;;;;;;;8291949;28;20473;-69
2021/05/30 09:14:46;;;;;;;9.05;4.75;;;;;;;;;;8289649;28;20056;-69
2021/05/30 09:18:51;;;;;;;25.88;9.15;;;;;;;;;;8290069;28;20479;-70
2021/05/30 09:22:56;;;;;;;6.32;4.07;;;;;;;;;;8289581;28;20394;-70
2021/05/30 09:27:09;;;;;;;6.47;2.30;;;;;;;;;;8289262;28;20429;-69
2021/05/30 09:31:14;;;;;;;6.80;2.63;;;;;;;;;;8291820;28;20395;-69
2021/05/30 09:35:55;;;;;;;1.92;1.48;;;;;;;;;;8289486;28;20410;-69
2021/05/30 09:40:05;;;;;;;4.55;2.90;;;;;;;;;;8289320;28;20467;-69
2021/05/30 09:44:10;;;;;;;13.35;4.97;;;;;;;;;;8295375;28;20475;-70
2021/05/30 09:48:20;;;;;;;9.45;3.28;;;;;;;;;;8304571;28;20479;-69
2021/05/30 09:52:57;;;;;;;10.32;3.17;;;;;;;;;;8327682;28;20490;-69
2021/05/30 09:57:08;;;;;;;2.63;1.90;;;;;;;;;;8307385;28;20374;-69
2021/05/30 10:01:13;;;;;;;6.88;2.92;;;;;;;;;;8328652;28;20971;-69
2021/05/30 10:05:18;;;;;;;10.50;3.97;;;;;;;;;;8328401;28;20404;-68
2021/05/30 10:09:26;;;;;;;2.95;1.80;;;;;;;;;;8312339;28;20355;-68
2021/05/30 10:13:30;;;;;;;;;;;;;;;;;;8328936;28;20458;-68
2021/05/30 10:17:37;;;;;;;2.45;1.77;;;;;;;;;;8330885;28;20254;-69
2021/05/30 10:21:50;;;;;;;3.72;2.10;;;;;;;;;;8310910;28;20439;-68
2021/05/30 10:26:19;;;;;;;6.70;1.83;;;;;;;;;;8309734;28;20458;-66
2021/05/30 10:30:26;;;;;;;2.88;1.48;;;;;;;;;;8328142;28;20371;-68
2021/05/30 10:34:31;;;;;;;2.53;1.58;;;;;;;;;;8327536;28;20070;-68
2021/05/30 10:38:45;;;;;;;8.90;3.53;;;;;;;;;;8328505;28;20056;-67
2021/05/30 10:43:11;;;;;;;2.10;0.82;;;;;;;;;;8326852;28;20490;-68
2021/05/30 10:47:17;;;;;;;3.80;1.47;;;;;;;;;;8327716;28;20056;-68
2021/05/30 10:51:40;;;;;;;6.03;2.67;;;;;;;;;;8329919;28;20469;-67
2021/05/30 10:55:45;;;;;;;1.90;1.02;;;;;;;;;;8327856;28;20477;-68
2021/05/30 10:59:50;;;;;;;3.25;1.25;;;;;;;;;;8327213;28;20364;-68
2021/05/30 11:03:54;;;;;;;3.40;1.33;;;;;;;;;;8327797;28;20364;-68
2021/05/30 11:07:59;;;;;;;3.97;1.70;;;;;;;;;;8327031;28;20463;-67
2021/05/30 11:12:23;;;;;;;2.47;1.05;;;;;;;;;;8326553;28;20048;-68
2021/05/30 11:16:33;;;;;;;1.02;0.80;;;;;;;;;;8327231;28;20362;-68
2021/05/30 11:20:39;;;;;;;3.38;2.00;;;;;;;;;;8327205;28;20089;-67
2021/05/30 11:24:44;;;;;;;1.98;0.90;;;;;;;;;;8326059;28;20559;-67
2021/05/30 11:28:49;;;;;;;2.00;1.00;;;;;;;;;;8327939;28;20425;-67
2021/05/30 11:32:54;;;;;;;1.75;1.10;;;;;;;;;;8324799;28;20463;-68
2021/05/30 11:37:10;;;;;;;2.20;1.30;;;;;;;;;;8327210;28;20383;-67
2021/05/30 11:41:37;;;;;;;13.57;5.30;;;;;;;;;;8326510;28;20470;-66
2021/05/30 11:45:46;;;;;;;6.15;1.80;;;;;;;;;;8325248;28;20052;-68
2021/05/30 11:49:51;;;;;;;2.78;1.25;;;;;;;;;;8324986;28;20469;-68
2021/05/30 11:54:02;;;;;;;1.00;0.70;;;;;;;;;;8326703;28;20363;-67
2021/05/30 11:58:08;;;;;;;4.45;1.90;;;;;;;;;;8325807;28;20360;-68
2021/05/30 12:02:31;;;;;;;3.20;1.83;;;;;;;;;;8324491;28;20378;-67
2021/05/30 12:06:43;;;;;;;7.68;3.20;;;;;;;;;;8323789;28;20367;-68
2021/05/30 12:11:02;;;;;;;2.38;1.13;;;;;;;;;;8324365;28;20052;-66
2021/05/30 12:15:22;;;;;;;2.58;1.00;;;;;;;;;;8325497;28;20462;-67
2021/05/30 12:19:42;;;;;;;2.58;1.55;;;;;;;;;;8324401;28;20486;-67
2021/05/30 12:23:48;;;;;;;5.07;2.80;;;;;;;;;;8324088;28;20473;-69
2021/05/30 12:27:51;;;;;;;4.85;2.88;;;;;;;;;;8327186;28;20385;-69
2021/05/30 12:31:56;;;;;;;6.32;3.00;;;;;;;;;;8307233;28;20374;-68
2021/05/30 12:36:01;;;;;;;5.80;2.95;;;;;;;;;;8306012;28;20477;-69
2021/05/30 12:40:09;;;;;;;8.13;4.68;;;;;;;;;;8324109;28;20374;-68
2021/05/30 12:44:19;;;;;;;4.35;2.55;;;;;;;;;;8323403;28;20434;-69
2021/05/30 12:48:38;;;;;;;2.58;1.70;;;;;;;;;;8324516;28;20470;-68
2021/05/30 12:52:50;;;;;;;;;;;;;;;;;;8307088;28;20390;-69
2021/05/30 12:56:56;;;;;;;5.35;2.00;;;;;;;;;;8323046;28;20239;-68
2021/05/30 13:01:01;;;;;;;3.95;2.35;;;;;;;;;;8324206;28;20400;-68
2021/05/30 13:05:07;;;;;;;8.90;1.55;;;;;;;;;;8324043;28;20370;-68
2021/05/30 13:09:12;;;;;;;5.07;2.05;;;;;;;;;;8323589;28;20064;-70
2021/05/30 13:13:39;;;;;;;3.70;1.63;;;;;;;;;;8323227;28;20459;-69
2021/05/30 13:17:55;;;;;;;2.90;1.67;;;;;;;;;;8326795;28;20370;-67
2021/05/30 13:22:06;;;;;;;2.35;1.20;;;;;;;;;;8331950;28;20497;-68
2021/05/30 13:26:11;;;;;;;6.03;1.92;;;;;;;;;;8329770;28;20332;-69
2021/05/30 13:30:16;;;;;;;3.17;1.45;;;;;;;;;;8331312;28;20402;-67
2021/05/30 13:34:21;;;;;;;4.47;1.75;;;;;;;;;;8329772;28;20351;-67
2021/05/30 13:38:27;;;;;;;3.15;1.75;;;;;;;;;;8327687;28;20367;-67
2021/05/30 13:42:32;;;;;;;2.67;1.38;;;;;;;;;;8330624;28;20052;-67
2021/05/30 13:46:37;;;;;;;2.80;1.40;;;;;;;;;;8329801;28;20355;-67
2021/05/30 13:51:00;;;;;;;2.40;1.30;;;;;;;;;;8327442;28;20459;-67
2021/05/30 13:55:06;;;;;;;1.10;1.00;;;;;;;;;;8328466;28;20455;-70
2021/05/30 13:59:11;;;;;;;3.15;1.10;;;;;;;;;;8311362;28;20447;-68
2021/05/30 14:03:15;;;;;;;3.20;1.30;;;;;;;;;;8329919;28;20405;-67
2021/05/30 14:07:21;;;;;;;3.67;1.20;;;;;;;;;;8311087;28;20478;-69
2021/05/30 14:11:28;;;;;;;4.07;1.00;;;;;;;;;;8330319;28;20470;-69
2021/05/30 14:15:43;;;;;;;1.55;1.08;;;;;;;;;;8330880;28;20451;-67
2021/05/30 14:19:47;;;;;;;3.80;1.40;;;;;;;;;;8329680;28;20406;-67
2021/05/30 14:23:53;;;;;;;2.50;1.38;;;;;;;;;;8328749;28;20485;-68
2021/05/30 14:28:01;;;;;;;2.50;1.30;;;;;;;;;;8327946;28;20413;-70
2021/05/30 14:32:06;;;;;;;5.78;1.65;;;;;;;;;;8327718;28;20383;-70
2021/05/30 14:36:11;;;;;;;3.72;1.30;;;;;;;;;;8328308;28;20070;-69
2021/05/30 14:40:15;;;;;;;4.97;1.38;;;;;;;;;;8327789;28;20389;-67
2021/05/30 14:44:20;;;;;;;2.40;1.05;;;;;;;;;;8327555;28;20340;-67
2021/05/30 14:48:25;;;;;;;1.60;1.08;;;;;;;;;;8326678;28;20390;-69
2021/05/30 14:52:29;;;;;;;2.00;1.17;;;;;;;;;;8327149;28;20391;-69
2021/05/30 14:56:36;;;;;;;3.63;1.40;;;;;;;;;;8327525;28;20382;-68
2021/05/30 15:00:40;;;;;;;2.85;1.25;;;;;;;;;;8326154;28;20378;-69
2021/05/30 15:04:45;;;;;;;3.63;1.70;;;;;;;;;;8326273;28;20393;-69
2021/05/30 15:08:51;;;;;;;4.00;2.35;;;;;;;;;;8327645;28;20373;-70
2021/05/30 15:12:56;;;;;;;7.03;2.80;;;;;;;;;;8327170;28;20466;-69
2021/05/30 15:17:00;;;;;;;2.60;1.30;;;;;;;;;;8326378;28;20333;-69
2021/05/30 15:21:09;;;;;;;6.05;1.52;;;;;;;;;;8326637;28;20410;-68
2021/05/30 15:25:13;;;;;;;2.20;1.30;;;;;;;;;;8327104;28;20455;-68
2021/05/30 15:29:18;;;;;;;1.33;0.80;;;;;;;;;;8326303;28;20394;-68
2021/05/30 15:33:26;;;;;;;3.40;0.93;;;;;;;;;;8327247;28;20486;-68
2021/05/30 15:37:31;;;;;;;;;;;;;;;;;;8326040;28;20459;-69
2021/05/30 15:41:36;;;;;;;2.63;0.88;;;;;;;;;;8325247;28;20247;-68
2021/05/30 15:45:41;;;;;;;1.60;0.70;;;;;;;;;;8326874;28;20378;-69
2021/05/30 15:49:46;;;;;;;0.98;0.80;;;;;;;;;;8325124;28;20474;-68
2021/05/30 15:53:57;;;;;;;1.23;0.90;;;;;;;;;;8324119;28;20499;-70
2021/05/30 15:58:03;;;;;;;1.80;1.00;;;;;;;;;;8324951;28;20370;-69
2021/05/30 16:02:08;;;;;;;1.77;1.08;;;;;;;;;;8327089;28;20358;-69
2021/05/30 16:06:13;;;;;;;2.08;1.23;;;;;;;;;;8325044;28;20378;-68
2021/05/30 16:10:18;;;;;;;2.88;1.00;;;;;;;;;;8325019;28;20473;-68
2021/05/30 16:14:24;;;;;;;1.98;1.10;;;;;;;;;;8326050;28;20052;-68
2021/05/30 16:18:28;;;;;;;3.08;1.10;;;;;;;;;;8324955;28;20501;-68
2021/05/30 16:22:35;;;;;;;4.53;1.13;;;;;;;;;;8324268;28;20367;-68
2021/05/30 16:26:40;;;;;;;1.88;1.02;;;;;;;;;;8323653;28;20355;-68
2021/05/30 16:30:45;;;;;;;5.05;2.60;;;;;;;;;;8324272;28;20385;-69
2021/05/30 16:34:48;;;;;;;2.53;1.42;;;;;;;;;;8323894;28;20466;-68
2021/05/30 16:38:53;;;;;;;1.08;0.90;;;;;;;;;;8324459;28;20359;-68
2021/05/30 16:42:57;;;;;;;1.65;1.10;;;;;;;;;;8324088;28;20079;-69
2021/05/30 16:47:02;;;;;;;2.60;1.27;;;;;;;;;;8305303;28;20485;-68
2021/05/30 16:51:07;;;;;;;1.95;0.98;;;;;;;;;;8322870;28;20360;-68
2021/05/30 16:55:12;;;;;;;2.92;1.73;;;;;;;;;;8322026;28;20073;-68
2021/05/30 16:59:17;;;;;;;5.47;1.20;;;;;;;;;;8323667;28;20358;-68
2021/05/30 17:03:21;;;;;;;4.35;1.13;;;;;;;;;;8324876;28;20386;-68
2021/05/30 17:07:26;;;;;;;4.63;1.30;;;;;;;;;;8323058;28;20074;-69
2021/05/30 17:11:30;;;;;;;2.22;0.98;;;;;;;;;;8324060;28;20451;-68
2021/05/30 17:15:54;;;;;;;2.47;1.13;;;;;;;;;;8323737;28;20471;-68
2021/05/30 17:19:59;;;;;;;4.32;1.98;;;;;;;;;;8323388;28;20482;-68
2021/05/30 17:24:07;;;;;;;4.70;2.80;;;;;;;;;;8323188;28;20390;-68
2021/05/30 17:28:11;;;;;;;3.28;1.60;;;;;;;;;;8324089;28;20078;-68
2021/05/30 17:32:20;;;;;;;2.30;1.38;;;;;;;;;;8323705;28;20474;-68
2021/05/30 17:36:25;;;;;;;2.60;1.40;;;;;;;;;;8325082;28;20481;-68
2021/05/30 17:40:30;;;;;;;2.67;1.60;;;;;;;;;;8323863;28;20478;-69
2021/05/30 17:44:36;;;;;;;1.75;1.45;;;;;;;;;;8325622;28;20450;-68
2021/05/30 17:48:41;;;;;;;2.42;1.48;;;;;;;;;;8324030;28;20412;-69
2021/05/30 17:52:47;;;;;;;4.45;1.20;;;;;;;;;;8307283;28;20370;-69
2021/05/30 17:56:52;;;;;;;3.25;1.50;;;;;;;;;;8324973;28;20471;-68
2021/05/30 18:00:58;;;;;;;2.28;1.27;;;;;;;;;;8304629;28;20485;-68
2021/05/30 18:05:03;;;;;;;2.83;1.42;;;;;;;;;;8327649;28;20371;-68
2021/05/30 18:09:09;;;;;;;2.38;1.20;;;;;;;;;;8328571;28;20455;-68
2021/05/30 18:13:16;;;;;;;2.92;1.65;;;;;;;;;;8327915;28;20477;-69
2021/05/30 18:17:23;;;;;;;6.10;1.40;;;;;;;;;;8329124;28;20463;-68
2021/05/30 18:21:32;;;;;;;4.47;2.38;;;;;;;;;;8328521;28;20370;-68
2021/05/30 18:25:40;;;;;;;5.53;2.67;;;;;;;;;;8327824;28;20052;-68
2021/05/30 18:29:45;;;;;;;6.13;2.65;;;;;;;;;;8329758;28;20423;-68
2021/05/30 18:33:51;;;;;;;4.70;2.30;;;;;;;;;;8326668;28;20393;-67
2021/05/30 18:37:57;;;;;;;4.20;2.00;;;;;;;;;;8309203;28;20052;-68
2021/05/30 18:42:03;;;;;;;2.97;1.90;;;;;;;;;;8328003;28;20417;-69
2021/05/30 18:46:06;;;;;;;4.60;2.40;;;;;;;;;;8330285;28;20471;-66
2021/05/30 18:50:13;;;;;;;9.38;2.95;;;;;;;;;;8327500;28;20363;-66
2021/05/30 18:54:18;;;;;;;5.40;2.30;;;;;;;;;;8309256;28;20437;-66
2021/05/30 18:58:23;;;;;;;7.30;2.45;;;;;;;;;;8328785;28;20489;-66
2021/05/30 19:02:28;;;;;;;8.60;2.38;;;;;;;;;;8326457;28;20410;-66
2021/05/30 19:06:33;;;;;;;10.82;2.72;;;;;;;;;;8328385;28;20074;-67
2021/05/30 19:10:39;;;;;;;11.02;3.58;;;;;;;;;;8308720;28;20451;-67
2021/05/30 19:14:44;;;;;;;5.10;2.67;;;;;;;;;;8326702;28;20497;-67
2021/05/30 19:18:49;;;;;;;7.70;2.28;;;;;;;;;;8326046;28;20454;-67
2021/05/30 19:22:54;;;;;;;4.88;2.50;;;;;;;;;;8308204;28;20462;-67
2021/05/30 19:26:59;;;;;;;5.00;2.20;;;;;;;;;;8326199;28;20427;-68
2021/05/30 19:31:05;;;;;;;5.65;3.25;;;;;;;;;;8325828;28;20478;-68
2021/05/30 19:35:10;;;;;;;5.45;2.60;;;;;;;;;;8326367;28;20363;-68
2021/05/30 19:39:15;;;;;;;7.55;2.40;;;;;;;;;;8325987;28;20455;-68
2021/05/30 19:43:19;;;;;;;3.47;2.58;;;;;;;;;;8326204;28;20508;-68
2021/05/30 19:47:24;;;;;;;10.18;2.78;;;;;;;;;;8325236;28;20451;-69
2021/05/30 19:51:27;;;;;;;4.03;2.85;;;;;;;;;;8324452;28;20386;-68
2021/05/30 19:55:32;;;;;;;6.13;2.75;;;;;;;;;;8327295;28;20487;-69
2021/05/30 19:59:37;;;;;;;8.98;3.47;;;;;;;;;;8325849;28;20336;-69
2021/05/30 20:03:43;;;;;;;5.80;2.92;;;;;;;;;;8325065;28;20048;-68
2021/05/30 20:07:47;;;;;;;6.70;3.45;;;;;;;;;;8322815;28;20405;-68
2021/05/30 20:11:53;;;;;;;11.02;3.83;;;;;;;;;;8324870;28;20477;-68
2021/05/30 20:15:58;;;;;;;5.80;3.33;;;;;;;;;;8323751;28;20382;-68
2021/05/30 20:20:06;;;;;;;8.32;3.38;;;;;;;;;;8325091;28;20348;-68
2021/05/30 20:24:12;;;;;;;6.55;3.40;;;;;;;;;;8324009;28;20102;-69
2021/05/30 20:28:23;;;;;;;6.55;3.35;;;;;;;;;;8324327;28;20044;-68
2021/05/30 20:32:27;;;;;;;4.82;3.22;;;;;;;;;;8324011;28;20391;-68
2021/05/30 20:36:32;;;;;;;5.30;2.78;;;;;;;;;;8324074;28;20074;-68
2021/05/30 20:40:39;;;;;;;6.43;3.78;;;;;;;;;;8324325;28;20044;-68
2021/05/30 20:44:44;;;;;;;5.40;3.80;;;;;;;;;;8323692;28;20374;-68
2021/05/30 20:48:49;;;;;;;6.97;3.95;;;;;;;;;;8321567;28;20462;-68
2021/05/30 20:52:54;;;;;;;7.00;4.13;;;;;;;;;;8323039;28;20474;-68
2021/05/30 20:57:01;;;;;;;8.82;3.80;;;;;;;;;;8323576;28;20386;-68
2021/05/30 21:01:06;;;;;;;5.32;3.15;;;;;;;;;;8323845;28;20383;-68
2021/05/30 21:05:12;;;;;;;6.18;3.25;;;;;;;;;;8323403;28;20382;-69
2021/05/30 21:09:17;;;;;;;6.50;3.25;;;;;;;;;;8306361;28;20462;-68
2021/05/30 21:13:22;;;;;;;10.40;3.50;;;;;;;;;;8323409;28;20394;-68
2021/05/30 21:17:27;;;;;;;6.88;3.38;;;;;;;;;;8323074;28;20052;-68
2021/05/30 21:21:33;;;;;;;6.70;3.85;;;;;;;;;;8323659;28;20478;-68
2021/05/30 21:25:37;;;;;;;8.20;3.42;;;;;;;;;;8325183;28;20320;-68
2021/05/30 21:29:42;;;;;;;8.27;3.58;;;;;;;;;;8322750;28;20101;-68
2021/05/30 21:33:47;;;;;;;7.30;2.75;;;;;;;;;;8323362;28;20478;-69
2021/05/30 21:37:52;;;;;;;5.63;2.92;;;;;;;;;;8325320;28;20091;-68
2021/05/30 21:41:57;;;;;;;6.07;3.03;;;;;;;;;;8329977;28;20355;-68
2021/05/30 21:46:02;;;;;;;6.45;3.25;;;;;;;;;;8330086;28;20399;-68
2021/05/30 21:50:09;;;;;;;4.20;2.85;;;;;;;;;;8298557;28;20074;-68
2021/05/30 21:54:14;;;;;;;5.68;2.83;;;;;;;;;;8296280;28;20049;-68
2021/05/30 21:58:18;;;;;;;7.95;3.30;;;;;;;;;;8295712;28;20475;-68
2021/05/30 22:02:24;;;;;;;7.20;2.85;;;;;;;;;;8297278;28;20474;-68
2021/05/30 22:06:30;;;;;;;8.57;3.03;;;;;;;;;;8296425;28;20443;-68
2021/05/30 22:10:35;;;;;;;4.85;2.83;;;;;;;;;;8296050;28;20460;-68
2021/05/30 22:14:41;;;;;;;10.00;3.40;;;;;;;;;;8295466;28;20087;-68
2021/05/30 22:23:09;;;;;;;6.05;3.03;;;;;;;;;;8295407;28;20559;-69
2021/05/30 22:27:13;;;;;;;6.90;3.65;;;;;;;;;;8297373;28;20581;-68
2021/05/30 22:31:18;;;;;;;8.15;4.32;;;;;;;;;;8295373;28;20125;-68
2021/05/30 22:35:24;;;;;;;5.80;3.50;;;;;;;;;;8311321;28;20435;-68
2021/05/30 22:39:28;;;;;;;6.38;3.25;;;;;;;;;;8295427;28;20448;-68
2021/05/30 22:43:33;;;;;;;5.85;3.17;;;;;;;;;;8294794;28;20478;-68
2021/05/30 22:47:37;;;;;;;7.13;3.85;;;;;;;;;;8295701;28;20068;-68
2021/05/30 22:51:41;;;;;;;8.55;3.80;;;;;;;;;;8328305;28;20348;-67
2021/05/30 22:55:46;;;;;;;6.55;3.63;;;;;;;;;;8328653;28;20463;-68
2021/05/30 22:59:51;;;;;;;7.20;3.65;;;;;;;;;;8327120;28;20367;-68
2021/05/30 23:03:56;;;;;;;6.18;3.63;;;;;;;;;;8327758;28;20343;-68
2021/05/30 23:08:01;;;;;;;8.65;3.50;;;;;;;;;;8326393;28;20413;-68
2021/05/30 23:12:05;;;;;;;4.72;3.30;;;;;;;;;;8328975;28;20393;-68
2021/05/30 23:16:10;;;;;;;14.90;3.80;;;;;;;;;;8326988;28;20382;-68
2021/05/30 23:20:15;;;;;;;6.65;3.63;;;;;;;;;;8326288;28;20075;-68
2021/05/30 23:24:19;;;;;;;4.30;2.95;;;;;;;;;;8326732;28;20473;-68
2021/05/30 23:28:24;;;;;;;8.57;4.80;;;;;;;;;;8328119;28;20367;-68
2021/05/30 23:32:29;;;;;;;7.90;4.45;;;;;;;;;;8328519;28;20477;-68
2021/05/30 23:36:33;;;;;;;7.75;4.40;;;;;;;;;;8326536;28;20381;-69
2021/05/30 23:40:38;;;;;;;11.00;5.00;;;;;;;;;;8325285;28;20497;-68
2021/05/30 23:44:43;;;;;;;7.95;4.68;;;;;;;;;;8326788;28;20363;-68
2021/05/30 23:48:48;;;;;;;15.82;9.32;;;;;;;;;;8326899;28;20444;-68
2021/05/30 23:52:55;;;;;;;11.90;5.95;;;;;;;;;;8326347;28;20060;-68
2021/05/30 23:57:00;;;;;;;11.80;5.13;;;;;;;;;;8325198;28;20455;-68
